Kadena Air Base, Japan
Current Conditions -  °F | °C
As of 10:18 PM on Friday 28 Nov 2014 (Local Time) from RODN Reporting Station
Light Rain Light Rain  
Wind Chill: 70°   Ceiling: 6000
Heat Index: 70°   Visibility: 6mi
Dew Point: 68°   Wind: 21mph
Humidity: 94%   Direction: 80°E
Pressure: 30.08"   Gusts: NA
Location:  26.37°N, 127.75°E
Report Text: RODN 281318Z AUTO 08018KT 6SM R05/5000FT -RA BR SCT018 OVC060 21/20 A3008 RMK AO2 DZB1258E1302 $
Loading
Personal Weather Stations






























Interactive Weather Map New forecast layout! Learn more

10-Day Weather Forecast

Advertisements
Track Severe Weather on mobile